Time;durP1;ratioP1;P1;durP2;ratioP2;P2;SDS_P1;SDS_P2;PMS_P1;PMS_P2;Temp;Humidity;BMP_temperature;BMP_pressure;BME280_temperature;BME280_humidity;BME280_pressure;Samples;Min_cycle;Max_cycle;Signal;HPM_P1;HPM_P2
2022/11/05 00:17:55;;;;;;;8.93;3.05;;;;;;;8.94;100.00;101258.28;6182359;23;20020;-88
2022/11/05 00:20:26;;;;;;;10.02;2.67;;;;;;;8.86;100.00;101263.84;6176874;23;20405;-87
2022/11/05 00:26:00;;;;;;;5.72;2.60;;;;;;;8.78;100.00;101279.22;6180957;23;20016;-88
2022/11/05 00:28:43;;;;;;;8.23;2.53;;;;;;;8.73;100.00;101284.38;6181625;23;20043;-87
2022/11/05 00:31:14;;;;;;;8.40;3.03;;;;;;;8.67;100.00;101287.84;6217875;23;20012;-88
2022/11/05 00:33:47;;;;;;;6.47;2.60;;;;;;;8.59;100.00;101290.66;6183710;23;20024;-88
2022/11/05 00:36:20;;;;;;;8.68;3.20;;;;;;;8.41;100.00;101288.31;6183769;23;20028;-88
2022/11/05 00:38:52;;;;;;;12.82;3.38;;;;;;;8.41;100.00;101298.31;6217647;23;20013;-88
2022/11/05 00:41:39;;;;;;;;;;;;;;;;;;;;;
2022/11/05 00:50:05;;;;;;;9.20;3.17;;;;;;;8.20;100.00;101302.56;6207894;23;20028;-88
2022/11/05 00:55:25;;;;;;;6.38;2.85;;;;;;;8.14;100.00;101308.78;6219698;23;20020;-87
2022/11/05 00:58:04;;;;;;;9.57;3.40;;;;;;;7.97;100.00;101308.09;6182592;23;20043;-88
2022/11/05 01:00:40;;;;;;;5.40;3.05;;;;;;;7.99;100.00;101316.88;6216267;23;20636;-88
2022/11/05 01:03:19;;;;;;;10.68;2.95;;;;;;;8.08;100.00;101320.34;6180913;23;20107;-88
2022/11/05 01:05:52;;;;;;;8.60;2.70;;;;;;;7.95;100.00;101308.28;6219943;23;20019;-88
2022/11/05 01:08:27;;;;;;;9.55;2.38;;;;;;;7.85;100.00;101321.22;6220204;23;20015;-88
2022/11/05 01:10:58;;;;;;;11.23;2.63;;;;;;;7.81;100.00;101319.91;6182353;23;20028;-87
2022/11/05 01:13:33;;;;;;;8.95;2.83;;;;;;;7.84;100.00;101316.84;6217718;23;20013;-88
2022/11/05 01:16:07;;;;;;;9.38;2.88;;;;;;;7.89;100.00;101319.84;6182124;23;20059;-88
2022/11/05 01:18:40;;;;;;;7.70;2.67;;;;;;;7.58;100.00;101324.50;6216171;23;20117;-88
2022/11/05 01:21:14;;;;;;;8.68;3.05;;;;;;;7.67;100.00;101332.41;6218920;23;20021;-87
2022/11/05 01:23:41;;;;;;;9.18;2.88;;;;;;;7.67;100.00;101339.66;6182389;23;20135;-88
2022/11/05 01:26:12;;;;;;;9.55;2.80;;;;;;;7.61;100.00;101333.13;6218592;23;20023;-87
2022/11/05 01:28:44;;;;;;;13.65;3.15;;;;;;;7.72;100.00;101337.25;6208996;23;20223;-86
2022/11/05 01:31:13;;;;;;;6.15;2.60;;;;;;;7.60;100.00;101338.72;6219652;23;20032;-87
2022/11/05 01:33:46;;;;;;;10.00;3.13;;;;;;;7.62;100.00;101331.25;6220278;23;20059;-87
2022/11/05 01:36:22;;;;;;;7.38;3.00;;;;;;;7.72;100.00;101334.56;6184463;23;20021;-87
2022/11/05 01:38:54;;;;;;;9.20;2.92;;;;;;;7.70;100.00;101334.72;6182848;23;20031;-87
2022/11/05 01:41:23;;;;;;;6.60;3.13;;;;;;;7.67;100.00;101334.25;6221337;23;20012;-86
2022/11/05 01:43:56;;;;;;;8.88;2.88;;;;;;;7.54;100.00;101346.53;6184791;23;20027;-87
2022/11/05 01:46:34;;;;;;;10.18;3.17;;;;;;;7.55;100.00;101337.38;6221773;23;20047;-87
2022/11/05 01:49:34;;;;;;;6.32;2.85;;;;;;;7.55;100.00;101340.09;6182781;23;20020;-87
2022/11/05 01:52:07;;;;;;;13.20;3.28;;;;;;;7.75;100.00;101336.88;6220827;23;20027;-87
2022/11/05 01:54:46;;;;;;;10.90;3.58;;;;;;;7.88;100.00;101338.97;6184800;23;20024;-86
2022/11/05 01:57:15;;;;;;;9.15;3.28;;;;;;;7.75;100.00;101337.72;6221843;23;20020;-87
2022/11/05 01:59:56;;;;;;;17.02;4.45;;;;;;;7.91;100.00;101336.75;6219407;23;20024;-88
2022/11/05 02:02:48;;;;;;;10.00;2.88;;;;;;;8.06;100.00;101336.78;6210273;23;20135;-87
2022/11/05 02:05:40;;;;;;;8.20;2.70;;;;;;;7.78;100.00;101331.13;6210401;23;20020;-86
2022/11/05 02:08:31;;;;;;;8.20;3.90;;;;;;;7.65;100.00;101320.03;6220406;23;20087;-87
2022/11/05 02:11:03;;;;;;;9.95;3.78;;;;;;;7.78;100.00;101314.88;6184761;23;20043;-87
2022/11/05 02:13:39;;;;;;;9.38;3.30;;;;;;;7.71;100.00;101324.72;6183771;23;20775;-87
2022/11/05 02:16:28;;;;;;;14.32;4.20;;;;;;;7.73;100.00;101322.69;6184723;23;20056;-87
2022/11/05 02:19:08;;;;;;;;;;;;;;;7.83;100.00;101315.16;6221461;23;20579;-87
2022/11/05 02:22:14;;;;;;;10.95;3.55;;;;;;;7.81;100.00;101319.91;6183848;23;20370;-87
2022/11/05 02:25:09;;;;;;;17.15;5.55;;;;;;;7.83;100.00;101317.03;6183361;23;20021;-86
2022/11/05 02:28:11;;;;;;;10.65;4.30;;;;;;;8.04;100.00;101313.63;6183697;23;20016;-87
2022/11/05 02:30:48;;;;;;;10.95;5.38;;;;;;;7.91;100.00;101311.53;6217833;23;20450;-87
2022/11/05 02:33:33;;;;;;;16.02;5.45;;;;;;;7.91;100.00;101314.25;6182619;23;20024;-87
2022/11/05 02:36:19;;;;;;;12.15;4.68;;;;;;;7.90;100.00;101324.22;6184313;23;20063;-88
2022/11/05 02:39:03;;;;;;;9.68;4.95;;;;;;;7.85;100.00;101313.09;6217109;23;20103;-88
2022/11/05 02:41:40;;;;;;;10.63;6.60;;;;;;;7.92;100.00;101311.31;6181757;23;20025;-87
2022/11/05 02:44:27;;;;;;;20.60;7.38;;;;;;;8.06;100.00;101317.81;6220473;23;20012;-86
2022/11/05 02:47:13;;;;;;;12.82;6.53;;;;;;;8.14;100.00;101314.19;6221594;23;20028;-85
2022/11/05 02:49:56;;;;;;;13.35;6.03;;;;;;;7.95;100.00;101304.72;6219383;23;20016;-87
2022/11/05 02:52:39;;;;;;;13.45;7.82;;;;;;;8.06;100.00;101309.69;6181931;23;20029;-86
2022/11/05 02:58:04;;;;;;;13.68;6.35;;;;;;;8.18;100.00;101299.22;6183959;23;20050;-86
2022/11/05 03:01:05;;;;;;;15.45;7.68;;;;;;;8.11;100.00;101309.13;6181765;23;20027;-86
2022/11/05 03:03:45;;;;;;;11.05;6.30;;;;;;;8.00;100.00;101306.88;6218819;23;20013;-87
2022/11/05 03:06:46;;;;;;;10.32;6.22;;;;;;;7.90;100.00;101313.38;6183518;23;20016;-87
2022/11/05 03:09:45;;;;;;;11.50;5.50;;;;;;;7.95;100.00;101304.72;6218672;23;20012;-87
2022/11/05 03:12:30;;;;;;;12.52;8.20;;;;;;;7.83;100.00;101307.03;6219709;23;20051;-86
2022/11/05 03:15:16;;;;;;;10.95;6.72;;;;;;;8.02;100.00;101305.66;6218799;23;20106;-87
2022/11/05 03:18:02;;;;;;;15.02;7.25;;;;;;;8.05;100.00;101309.84;6184167;23;20063;-87
2022/11/05 03:20:45;;;;;;;16.77;6.95;;;;;;;7.74;100.00;101313.56;6182361;23;20021;-87
2022/11/05 03:23:32;;;;;;;15.30;8.77;;;;;;;7.88;100.00;101320.00;6183060;23;20051;-87
2022/11/05 03:26:17;;;;;;;15.52;8.75;;;;;;;8.05;100.00;101320.69;6182884;23;20025;-88
2022/11/05 03:28:52;;;;;;;22.02;12.63;;;;;;;8.06;100.00;101311.56;6183412;23;20763;-86
2022/11/05 03:31:26;;;;;;;15.40;8.15;;;;;;;8.02;100.00;101315.66;6219071;23;20016;-87
2022/11/05 03:34:00;;;;;;;17.35;10.95;;;;;;;7.72;100.00;101321.00;6219967;23;20013;-87
2022/11/05 03:36:40;;;;;;;21.42;11.50;;;;;;;7.80;100.00;101323.66;6183535;23;20016;-87
2022/11/05 03:39:23;;;;;;;21.13;8.98;;;;;;;7.88;100.00;101320.84;6218953;23;20020;-87
2022/11/05 03:41:58;;;;;;;21.38;9.30;;;;;;;7.70;100.00;101323.06;6183668;23;20017;-86
2022/11/05 03:44:40;;;;;;;26.02;9.32;;;;;;;8.01;100.00;101320.25;6182108;23;20040;-86
2022/11/05 03:47:18;;;;;;;19.20;10.30;;;;;;;8.13;100.00;101317.91;6183941;23;20016;-88
2022/11/05 03:49:55;;;;;;;26.15;10.38;;;;;;;7.82;100.00;101321.59;6218878;23;20020;-86
2022/11/05 03:52:57;;;;;;;22.13;9.45;;;;;;;8.03;100.00;101322.75;6183122;23;20071;-87
2022/11/05 03:55:35;;;;;;;21.65;9.80;;;;;;;7.97;100.00;101327.91;6183473;23;20031;-87
2022/11/05 03:58:14;;;;;;;17.25;8.73;;;;;;;7.88;100.00;101331.69;6220034;23;20043;-86
2022/11/05 04:00:52;;;;;;;16.75;7.85;;;;;;;7.70;100.00;101339.31;6181568;23;20028;-87
2022/11/05 04:03:34;;;;;;;22.75;9.68;;;;;;;7.75;100.00;101337.72;6184167;23;20036;-89
2022/11/05 04:14:38;;;;;;;13.88;6.40;;;;;;;7.70;100.00;101342.03;6183279;23;20017;-87
2022/11/05 04:17:08;;;;;;;21.88;9.00;;;;;;;7.89;100.00;101344.22;6182745;23;20352;-88
2022/11/05 04:25:28;;;;;;;19.17;9.73;;;;;;;7.86;100.00;101341.88;6182828;23;20092;-87
2022/11/05 04:28:00;;;;;;;19.10;9.15;;;;;;;7.88;100.00;101341.69;6182761;23;20016;-85
2022/11/05 04:30:33;;;;;;;14.70;9.10;;;;;;;7.96;100.00;101338.91;6208806;23;20103;-87
2022/11/05 04:33:19;;;;;;;13.23;8.65;;;;;;;8.09;100.00;101341.00;6219625;23;20581;-87
2022/11/05 04:35:53;;;;;;;22.10;10.40;;;;;;;8.17;100.00;101340.91;6182629;23;20024;-88
2022/11/05 04:38:40;;;;;;;19.10;8.73;;;;;;;8.20;100.00;101345.94;6216980;23;20261;-87
2022/11/05 04:41:17;;;;;;;21.50;10.93;;;;;;;8.22;100.00;101357.44;6182523;23;20024;-87
2022/11/05 04:43:51;;;;;;;18.10;8.25;;;;;;;8.16;100.00;101347.38;6217455;23;20078;-86
2022/11/05 04:46:26;;;;;;;18.10;9.60;;;;;;;8.12;100.00;101346.06;6181431;23;20529;-87
2022/11/05 04:49:06;;;;;;;20.48;9.13;;;;;;;8.02;100.00;101345.47;6217440;23;20035;-87
2022/11/05 04:51:42;;;;;;;19.38;10.40;;;;;;;8.15;100.00;101351.09;6183587;23;20276;-87
2022/11/05 04:54:24;;;;;;;21.27;10.20;;;;;;;8.03;100.00;101344.44;6219521;23;20020;-87
2022/11/05 04:57:07;;;;;;;;;;;;;;;;;;;;;
2022/11/05 04:59:41;;;;;;;22.17;10.60;;;;;;;8.52;100.00;101354.78;6183041;23;20016;-87
2022/11/05 05:02:21;;;;;;;17.58;8.75;;;;;;;8.30;100.00;101357.38;6221783;23;20016;-87
2022/11/05 05:04:48;;;;;;;14.68;7.68;;;;;;;8.29;100.00;101355.69;6219688;23;20027;-87
2022/11/05 05:07:16;;;;;;;20.55;10.95;;;;;;;8.35;100.00;101349.53;6185697;23;20111;-87
2022/11/05 05:09:55;;;;;;;19.75;9.43;;;;;;;8.06;100.00;101361.16;6184038;23;20020;-87
2022/11/05 05:12:30;;;;;;;23.38;8.55;;;;;;;8.17;100.00;101354.47;6184809;23;20060;-87
2022/11/05 05:15:05;;;;;;;18.85;9.55;;;;;;;8.34;100.00;101350.56;6184449;23;20025;-86
2022/11/05 05:17:43;;;;;;;16.23;9.18;;;;;;;8.32;100.00;101351.78;6222185;23;20021;-87
2022/11/05 05:23:21;;;;;;;16.35;10.45;;;;;;;8.65;100.00;101349.56;6184751;23;20027;-87
2022/11/05 05:26:01;;;;;;;22.00;9.50;;;;;;;8.46;100.00;101358.25;6221391;23;20023;-87
2022/11/05 05:28:42;;;;;;;14.25;9.68;;;;;;;8.47;100.00;101357.25;6184252;23;20020;-87
2022/11/05 05:31:22;;;;;;;18.40;10.20;;;;;;;8.34;100.00;101353.25;6184825;23;20017;-88
2022/11/05 05:33:57;;;;;;;13.75;7.82;;;;;;;8.26;100.00;101344.38;6220562;23;20027;-88
2022/11/05 05:36:46;;;;;;;11.07;8.25;;;;;;;8.36;100.00;101356.63;6221807;23;20024;-88
2022/11/05 05:39:15;;;;;;;21.13;8.25;;;;;;;8.31;100.00;101356.34;6210368;23;20024;-87
2022/11/05 05:41:50;;;;;;;12.82;7.63;;;;;;;8.16;100.00;101360.94;6210861;23;20070;-88
2022/11/05 05:44:38;;;;;;;16.30;7.32;;;;;;;8.31;100.00;101369.91;6183918;23;20032;-86
2022/11/05 05:47:05;;;;;;;12.68;7.65;;;;;;;8.31;100.00;101369.91;6221541;23;20024;-87
2022/11/05 05:49:42;;;;;;;14.73;9.23;;;;;;;8.41;100.00;101368.81;6182067;23;20082;-88
2022/11/05 05:52:17;;;;;;;14.95;7.30;;;;;;;8.17;100.00;101373.44;6220330;23;20095;-87
2022/11/05 05:54:50;;;;;;;15.95;9.65;;;;;;;8.16;100.00;101380.72;6182723;23;20024;-86
2022/11/05 05:57:36;;;;;;;14.95;8.82;;;;;;;8.32;100.00;101377.00;6184939;23;20550;-87
2022/11/05 06:00:08;;;;;;;13.77;10.63;;;;;;;8.29;100.00;101368.44;6219043;23;20761;-88
2022/11/05 06:02:38;;;;;;;9.52;7.25;;;;;;;8.28;100.00;101386.53;6211001;23;20082;-86
2022/11/05 06:05:26;;;;;;;18.67;10.40;;;;;;;8.12;100.00;101382.13;6220504;23;20117;-88
2022/11/05 06:08:08;;;;;;;17.13;10.23;;;;;;;8.12;100.00;101389.41;6219509;23;20017;-88
2022/11/05 06:10:43;;;;;;;13.68;8.75;;;;;;;7.97;100.00;101383.97;6219766;23;20012;-88
2022/11/05 06:13:14;;;;;;;18.25;8.73;;;;;;;8.11;100.00;101385.00;6221608;23;20116;-88
2022/11/05 06:15:45;;;;;;;22.13;10.45;;;;;;;8.09;100.00;101396.03;6185325;23;20031;-89
2022/11/05 06:18:21;;;;;;;16.92;9.35;;;;;;;8.10;100.00;101394.19;6220227;23;20024;-88
2022/11/05 06:24:23;;;;;;;21.70;10.40;;;;;;;8.08;100.00;101407.06;6178721;23;20024;-89
2022/11/05 06:27:44;;;;;;;;;;;;;;;;;;;;;
2022/11/05 06:30:23;;;;;;;14.85;7.03;;;;;;;7.91;100.00;101396.34;6180634;23;20016;-87
2022/11/05 06:33:40;;;;;;;13.75;8.88;;;;;;;7.99;100.00;101391.88;6221918;23;20066;-89
2022/11/05 06:36:35;;;;;;;18.88;9.25;;;;;;;8.09;100.00;101392.47;6185473;23;20467;-90
2022/11/05 06:39:36;;;;;;;;;;;;;;;;;;;;;
2022/11/05 06:42:28;;;;;;;19.83;9.73;;;;;;;7.83;100.00;101398.28;6180223;23;20045;-88
2022/11/05 06:45:36;;;;;;;22.35;11.20;;;;;;;7.89;100.00;101398.41;6221606;23;20091;-88
2022/11/05 06:49:05;;;;;;;19.02;9.45;;;;;;;7.76;100.00;101399.00;6183133;23;20021;-89
2022/11/05 06:52:15;;;;;;;;;;;;;;;;;;;;;
2022/11/05 06:54:56;;;;;;;22.08;11.25;;;;;;;7.78;100.00;101396.13;6167457;23;20036;-88
2022/11/05 06:57:53;;;;;;;17.83;10.02;;;;;;;7.82;100.00;101402.88;6182808;23;20116;-89
2022/11/05 07:00:36;;;;;;;19.48;11.63;;;;;;;7.91;100.00;101400.94;6183573;23;20025;-88
2022/11/05 07:03:17;;;;;;;20.17;11.68;;;;;;;7.97;100.00;101411.91;6184855;23;20020;-88
2022/11/05 07:06:24;;;;;;;17.30;10.85;;;;;;;7.87;100.00;101415.88;6182896;23;20099;-89
2022/11/05 07:09:29;;;;;;;23.33;9.88;;;;;;;7.83;100.00;101415.38;6180143;23;20030;-89
2022/11/05 07:12:16;;;;;;;23.42;10.38;;;;;;;7.86;100.00;101414.16;6217959;23;20078;-86
2022/11/05 07:15:11;;;;;;;21.48;10.68;;;;;;;7.95;100.00;101405.81;6182243;23;20100;-88
2022/11/05 07:18:18;;;;;;;17.27;11.90;;;;;;;7.97;100.00;101411.06;6207698;23;20025;-88
2022/11/05 07:21:20;;;;;;;23.52;10.98;;;;;;;8.07;100.00;101417.03;6180504;23;20051;-87
2022/11/05 07:24:16;;;;;;;22.35;12.82;;;;;;;7.75;100.00;101423.56;6218911;23;20090;-89
2022/11/05 07:27:14;;;;;;;14.35;9.52;;;;;;;7.86;100.00;101417.75;6220404;23;20013;-87
2022/11/05 07:33:20;;;;;;;21.70;10.45;;;;;;;7.99;100.00;86978.97;6183361;23;20012;-87
2022/11/05 07:35:59;;;;;;;20.90;10.07;;;;;;;7.93;100.00;101418.69;6179263;23;20055;-88
2022/11/05 07:38:53;;;;;;;26.40;13.13;;;;;;;7.82;100.00;86955.19;6179639;23;20028;-89
2022/11/05 07:44:59;;;;;;;28.35;12.93;;;;;;;-146.42;100.00;86961.69;6187549;23;20127;-86
2022/11/05 07:48:06;;;;;;;20.90;11.73;;;;;;;8.11;100.00;67171.59;6215572;23;20013;-89
2022/11/05 07:51:13;;;;;;;27.55;14.63;;;;;;;7.90;100.00;67171.59;6174122;23;20043;-88
2022/11/05 07:54:28;;;;;;;;;;;;;;;;;;;;;
2022/11/05 07:57:15;;;;;;;23.45;13.80;;;;;;;7.64;100.00;86930.00;6172747;23;20458;-88
2022/11/05 07:59:50;;;;;;;22.38;11.93;;;;;;;7.98;100.00;101434.41;6182748;23;20013;-88
2022/11/05 08:02:46;;;;;;;26.95;14.45;;;;;;;8.06;100.00;86989.06;6181748;23;20020;-88
2022/11/05 08:05:50;;;;;;;26.67;14.18;;;;;;;-146.42;100.00;67171.59;6194371;23;20104;-87
2022/11/05 08:08:32;;;;;;;22.65;12.07;;;;;;;7.91;100.00;86968.16;6218803;23;20019;-88
2022/11/05 08:11:38;;;;;;;;;;;;;;;;;;;;;
2022/11/05 08:14:33;;;;;;;;;;;;;;;-146.42;100.00;-12897.09;6216803;23;20031;-88
2022/11/05 08:17:32;;;;;;;;;;;;;;;;;;;;;
2022/11/05 08:20:19;;;;;;;33.25;15.05;;;;;;;8.60;100.00;101438.78;6205806;23;20012;-88
2022/11/05 08:22:55;;;;;;;28.92;14.23;;;;;;;8.41;100.00;101445.59;6218323;23;20016;-88
2022/11/05 08:25:30;;;;;;;32.20;15.10;;;;;;;8.63;100.00;87069.81;6177934;23;20021;-85
2022/11/05 08:28:09;;;;;;;27.55;14.95;;;;;;;8.57;100.00;101436.47;6180874;23;20063;-87
2022/11/05 08:30:56;;;;;;;25.55;14.05;;;;;;;-146.42;100.00;101433.16;6180682;23;20020;-86
2022/11/05 08:33:33;;;;;;;30.25;14.52;;;;;;;8.63;100.00;67171.59;6219590;23;20017;-86
2022/11/05 08:36:06;;;;;;;26.98;14.70;;;;;;;-146.42;100.00;67171.59;6216493;23;20071;-86
2022/11/05 08:38:41;;;;;;;26.40;14.70;;;;;;;8.65;100.00;67171.59;6180277;23;20024;-87
2022/11/05 08:41:31;;;;;;;31.70;16.55;;;;;;;-146.42;100.00;87074.13;6179322;23;20025;-86
2022/11/05 08:47:18;;;;;;;28.60;15.65;;;;;;;8.66;100.00;67171.59;6178485;23;20085;-88
2022/11/05 08:49:51;;;;;;;27.83;15.02;;;;;;;8.78;100.00;87091.44;6174380;23;20027;-86
2022/11/05 08:53:01;;;;;;;;;;;;;;;;;;;;;
2022/11/05 08:55:37;;;;;;;31.20;13.73;;;;;;;-146.42;100.00;67171.59;6218272;23;20021;-87
2022/11/05 08:58:18;;;;;;;34.72;18.13;;;;;;;9.10;100.00;67171.59;6218037;23;20085;-87
2022/11/05 09:01:09;;;;;;;24.30;15.05;;;;;;;9.07;100.00;67171.59;6193322;23;20336;-86
2022/11/05 09:03:50;;;;;;;27.17;15.57;;;;;;;9.10;100.00;87136.13;6217762;23;20017;-87
2022/11/05 09:09:14;;;;;;;24.00;14.20;;;;;;;-146.42;100.00;67171.59;6180220;23;20407;-88
2022/11/05 09:11:49;;;;;;;32.40;15.60;;;;;;;-146.42;100.00;67171.59;6181189;23;20087;-87
2022/11/05 09:14:25;;;;;;;32.63;15.98;;;;;;;-146.42;100.00;67171.59;6216837;23;20020;-87
2022/11/05 09:17:19;;;;;;;26.92;15.18;;;;;;;-146.42;100.00;67171.59;6180338;23;20020;-87
2022/11/05 09:22:56;;;;;;;23.58;12.68;;;;;;;-146.42;100.00;67171.59;6217645;23;20083;-88
2022/11/05 09:26:00;;;;;;;27.38;14.15;;;;;;;-146.42;100.00;67171.59;6218091;23;20092;-89
2022/11/05 09:28:40;;;;;;;28.00;12.65;;;;;;;-146.42;100.00;67171.59;6168135;23;20534;-87
2022/11/05 09:31:26;;;;;;;;;;;;;;;;;;;;;
2022/11/05 09:34:22;;;;;;;21.63;13.43;;;;;;;-146.42;100.00;67171.59;6180873;23;20017;-87
2022/11/05 09:37:15;;;;;;;25.52;13.07;;;;;;;-146.42;100.00;67171.59;6181161;23;20047;-88
2022/11/05 09:39:54;;;;;;;26.77;12.27;;;;;;;-146.42;100.00;67171.59;6218055;23;20489;-87
2022/11/05 09:42:36;;;;;;;29.25;12.93;;;;;;;-146.42;100.00;67171.59;6178948;23;20124;-86
2022/11/05 09:45:15;;;;;;;22.27;11.25;;;;;;;-146.42;100.00;67171.59;6216916;23;20020;-87
2022/11/05 09:48:19;;;;;;;;;;;;;;;;;;;;;
2022/11/05 09:50:59;;;;;;;27.33;10.95;;;;;;;-146.42;100.00;67171.59;6159380;23;20021;-87
2022/11/05 09:53:42;;;;;;;18.02;11.32;;;;;;;-146.42;100.00;67171.59;6218971;23;20021;-88
2022/11/05 09:56:24;;;;;;;21.42;11.57;;;;;;;-146.42;100.00;67171.59;6219401;23;20018;-88
2022/11/05 09:59:01;;;;;;;24.10;11.15;;;;;;;-146.42;100.00;67171.59;6219328;23;20020;-87
2022/11/05 10:02:07;;;;;;;19.15;11.00;;;;;;;-146.42;100.00;67171.59;6218134;23;20008;-87
2022/11/05 10:04:48;;;;;;;18.25;10.25;;;;;;;-146.42;100.00;67171.59;6171901;23;20569;-85
2022/11/05 10:07:33;;;;;;;18.65;11.10;;;;;;;-146.42;100.00;67171.59;6220617;23;20020;-87
2022/11/05 10:10:06;;;;;;;16.58;10.10;;;;;;;-146.42;100.00;67171.59;6219689;23;20115;-86
2022/11/05 10:12:43;;;;;;;13.98;9.20;;;;;;;-146.42;100.00;67171.59;6219158;23;20017;-87
2022/11/05 10:15:17;;;;;;;22.27;9.07;;;;;;;-146.42;100.00;67171.59;6183759;23;20028;-87
2022/11/05 10:18:00;;;;;;;22.40;9.50;;;;;;;-146.42;100.00;67171.59;6184205;23;20024;-88
2022/11/05 10:20:35;;;;;;;17.77;9.13;;;;;;;-146.42;100.00;67171.59;6182012;23;20032;-88
2022/11/05 10:23:25;;;;;;;19.17;9.70;;;;;;;-146.42;100.00;67171.59;6181283;23;20021;-89
2022/11/05 10:25:59;;;;;;;19.35;9.00;;;;;;;-146.42;100.00;67171.59;6181450;23;20027;-87
2022/11/05 10:28:47;;;;;;;17.63;7.85;;;;;;;-146.42;100.00;67171.59;6219687;23;20028;-88
2022/11/05 10:31:44;;;;;;;18.15;7.53;;;;;;;-146.42;100.00;67171.59;6179827;23;20485;-88
2022/11/05 10:34:20;;;;;;;16.88;7.45;;;;;;;-146.42;100.00;67171.59;6219191;23;20439;-88
2022/11/05 10:37:11;;;;;;;;;;;;;;;;;;;;;
2022/11/05 10:39:56;;;;;;;20.08;7.72;;;;;;;-146.42;100.00;67171.59;6218863;23;20442;-88
2022/11/05 10:43:39;;;;;;;;;;;;;;;;;;;;;
2022/11/05 10:46:31;;;;;;;13.70;6.57;;;;;;;-146.42;100.00;67171.59;6221736;23;20012;-91
2022/11/05 11:06:02;;;;;;;13.65;7.00;;;;;;;-146.42;100.00;67171.59;6182865;23;20013;-89
2022/11/05 11:12:05;;;;;;;17.42;7.30;;;;;;;-146.42;100.00;67171.59;6182499;23;20017;-88
2022/11/05 11:18:35;;;;;;;;;;;;;;;;;;;;;
2022/11/05 11:22:02;;;;;;;17.30;8.40;;;;;;;-146.42;100.00;67171.59;6217283;23;20017;-88
2022/11/05 11:25:07;;;;;;;14.93;7.65;;;;;;;-146.42;100.00;67171.59;6170731;23;20025;-88
2022/11/05 11:27:54;;;;;;;;;;;;;;;;;;;;;
2022/11/05 11:30:53;;;;;;;16.52;6.65;;;;;;;-146.42;100.00;67171.59;6181945;23;20324;-87
2022/11/05 11:33:41;;;;;;;15.43;7.40;;;;;;;-146.42;100.00;67171.59;6218225;23;20119;-87
2022/11/05 11:36:43;;;;;;;;;;;;;;;;;;;;;
2022/11/05 11:39:37;;;;;;;12.38;7.28;;;;;;;-146.42;100.00;67171.59;6219718;23;20020;-87
2022/11/05 11:42:32;;;;;;;;;;;;;;;;;;;;;
2022/11/05 11:45:28;;;;;;;17.45;8.20;;;;;;;-146.42;100.00;67171.59;6218990;23;20090;-88
2022/11/05 11:48:26;;;;;;;22.30;8.18;;;;;;;-146.42;100.00;67171.59;6183548;23;20586;-89
2022/11/05 11:54:24;;;;;;;13.65;7.18;;;;;;;-146.42;100.00;67171.59;6180264;23;20020;-87
2022/11/05 11:57:04;;;;;;;14.50;7.47;;;;;;;-146.42;100.00;67171.59;6186585;23;20020;-86
2022/11/05 11:59:58;;;;;;;16.83;8.50;;;;;;;-146.42;100.00;67171.59;6184514;23;20035;-88
2022/11/05 12:03:02;;;;;;;18.33;9.00;;;;;;;-146.42;100.00;67171.59;6207113;23;20115;-87
2022/11/05 12:05:52;;;;;;;18.08;9.30;;;;;;;-146.42;100.00;67171.59;6178579;23;20029;-87
2022/11/05 12:08:51;;;;;;;19.48;10.48;;;;;;;-146.42;100.00;67171.59;6218178;23;20465;-87
2022/11/05 12:11:29;;;;;;;18.63;10.20;;;;;;;-146.42;100.00;67171.59;6218847;23;20044;-88
2022/11/05 12:14:07;;;;;;;22.40;10.10;;;;;;;-146.42;100.00;67171.59;6220113;23;20018;-87
2022/11/05 12:17:06;;;;;;;16.98;9.63;;;;;;;-146.42;100.00;67171.59;6182250;23;20032;-88
2022/11/05 12:20:15;;;;;;;;;;;;;;;;;;;;;
2022/11/05 12:23:26;;;;;;;19.70;9.30;;;;;;;-146.42;100.00;67171.59;6147704;23;20036;-87
2022/11/05 12:26:16;;;;;;;18.92;9.32;;;;;;;-146.42;100.00;67171.59;6182138;23;20086;-88
2022/11/05 12:29:56;;;;;;;;;;;;;;;;;;;;;
2022/11/05 12:33:03;;;;;;;14.73;7.50;;;;;;;-146.42;100.00;67171.59;6086724;23;20025;-88
2022/11/05 12:36:26;;;;;;;;;;;;;;;;;;;;;
2022/11/05 12:42:53;;;;;;;17.38;6.85;;;;;;;-146.42;100.00;67171.59;6219499;23;20021;-87
2022/11/05 12:45:57;;;;;;;;;;;;;;;;;;;;;
2022/11/05 12:49:31;;;;;;;;;;;;;;;;;;;;;
2022/11/05 12:53:09;;;;;;;15.10;5.45;;;;;;;-146.42;100.00;67171.59;6049912;23;20030;-90
2022/11/05 12:56:09;;;;;;;17.13;5.75;;;;;;;-146.42;100.00;67171.59;6039784;23;20027;-89
2022/11/05 12:59:28;;;;;;;16.38;6.03;;;;;;;-146.42;100.00;67171.59;6065947;23;20094;-89
2022/11/05 13:02:23;;;;;;;15.48;5.53;;;;;;;-146.42;100.00;67171.59;6035233;23;20023;-88
2022/11/05 13:04:58;;;;;;;17.33;8.82;;;;;;;-146.42;100.00;67171.59;6181245;23;20031;-88
2022/11/05 13:08:00;;;;;;;20.00;6.65;;;;;;;-146.42;100.00;67171.59;6203004;23;20031;-89
2022/11/05 13:10:58;;;;;;;13.10;6.45;;;;;;;-146.42;100.00;67171.59;6199939;23;20016;-88
2022/11/05 13:13:38;;;;;;;17.85;6.43;;;;;;;-146.42;100.00;67171.59;6182903;23;20021;-90
2022/11/05 13:16:39;;;;;;;13.18;6.10;;;;;;;-146.42;100.00;67171.59;6182708;23;20020;-90
2022/11/05 13:19:49;;;;;;;;;;;;;;;;;;;;;
2022/11/05 13:23:00;;;;;;;11.30;6.30;;;;;;;-146.42;100.00;67171.59;6208130;23;20064;-87
2022/11/05 13:25:46;;;;;;;14.38;5.93;;;;;;;-146.42;100.00;67171.59;6181888;23;20021;-89
2022/11/05 13:32:04;;;;;;;14.32;6.97;;;;;;;-146.42;100.00;67171.59;6201523;23;20012;-89
2022/11/05 13:34:49;;;;;;;21.10;7.85;;;;;;;-146.42;100.00;67171.59;6180921;23;20063;-89
2022/11/05 13:40:24;;;;;;;20.98;6.65;;;;;;;-146.42;100.00;67171.59;6218910;23;20020;-89
2022/11/05 13:43:21;;;;;;;13.23;7.50;;;;;;;-146.42;100.00;67171.59;6221192;23;20462;-89
2022/11/05 13:46:27;;;;;;;15.60;7.20;;;;;;;-146.42;100.00;67171.59;6184757;23;20023;-89
2022/11/05 13:49:28;;;;;;;14.95;5.75;;;;;;;-146.42;100.00;67171.59;6183838;23;20040;-88
2022/11/05 13:52:38;;;;;;;15.18;6.60;;;;;;;-146.42;100.00;67171.59;6221357;23;20152;-89
2022/11/05 13:55:49;;;;;;;14.73;6.25;;;;;;;-146.42;100.00;67171.59;6219642;23;20013;-89
2022/11/05 13:58:56;;;;;;;14.25;5.57;;;;;;;-146.42;100.00;67171.59;6217341;23;20379;-89
2022/11/05 14:01:54;;;;;;;14.90;5.75;;;;;;;-146.42;100.00;67171.59;6185303;23;20017;-88
2022/11/05 14:04:33;;;;;;;15.57;6.10;;;;;;;-146.42;100.00;67171.59;6222170;23;20009;-90
2022/11/05 14:07:20;;;;;;;17.48;6.13;;;;;;;-146.42;100.00;67171.59;6183720;23;20079;-90
2022/11/05 14:10:02;;;;;;;15.38;5.95;;;;;;;-146.42;100.00;67171.59;6184018;23;20024;-89
2022/11/05 14:13:00;;;;;;;16.42;5.50;;;;;;;-146.42;100.00;67171.59;6221036;23;20016;-88
2022/11/05 14:15:48;;;;;;;13.77;5.93;;;;;;;-146.42;100.00;67171.59;6182655;23;20052;-88
2022/11/05 14:18:46;;;;;;;14.68;5.38;;;;;;;-146.42;100.00;67171.59;6202054;23;20016;-89
2022/11/05 14:21:51;;;;;;;14.10;5.95;;;;;;;-146.42;100.00;67171.59;6219041;23;20021;-88
2022/11/05 14:24:51;;;;;;;14.70;5.78;;;;;;;-146.42;100.00;67171.59;6181725;23;20013;-86
2022/11/05 14:27:58;;;;;;;14.52;4.97;;;;;;;-146.42;100.00;67171.59;6219384;23;20017;-88
2022/11/05 14:30:49;;;;;;;15.45;5.78;;;;;;;-146.42;100.00;67171.59;6205580;23;20016;-89
2022/11/05 14:34:00;;;;;;;16.25;5.90;;;;;;;-146.42;100.00;67171.59;6184172;23;20020;-88
2022/11/05 14:36:48;;;;;;;;;;;;;;;;;;;;;
2022/11/05 14:39:26;;;;;;;15.48;5.20;;;;;;;-146.42;100.00;67171.59;6181909;23;20493;-89
2022/11/05 14:42:02;;;;;;;17.33;5.18;;;;;;;-146.42;100.00;67171.59;6220495;23;20021;-88
2022/11/05 14:44:36;;;;;;;15.20;5.05;;;;;;;-146.42;100.00;67171.59;6217628;23;20019;-88
2022/11/05 14:47:12;;;;;;;14.25;4.93;;;;;;;-146.42;100.00;67171.59;6181897;23;20588;-88
2022/11/05 14:49:56;;;;;;;16.42;5.22;;;;;;;-146.42;100.00;67171.59;6218644;23;20012;-88
2022/11/05 14:52:24;;;;;;;12.02;5.03;;;;;;;-146.42;100.00;67171.59;6218491;23;20016;-87
2022/11/05 14:55:07;;;;;;;12.52;4.50;;;;;;;-146.42;100.00;67171.59;6217840;23;20137;-88
2022/11/05 14:58:03;;;;;;;13.80;4.47;;;;;;;-146.42;100.00;67171.59;6180088;23;20028;-88